sensor_id;sensor_type;location;lat;lon;timestamp;temperature;humidity
25208;DHT22;13153;52.316;21.166;2023-07-13T00:01:53;21.70;99.90
25208;DHT22;13153;52.316;21.166;2023-07-13T00:04:21;21.70;99.90
25208;DHT22;13153;52.316;21.166;2023-07-13T00:06:50;21.70;99.90
25208;DHT22;13153;52.316;21.166;2023-07-13T00:09:18;21.70;99.90
25208;DHT22;13153;52.316;21.166;2023-07-13T00:11:45;21.70;99.90
25208;DHT22;13153;52.316;21.166;2023-07-13T00:14:13;21.60;99.90
25208;DHT22;13153;52.316;21.166;2023-07-13T00:16:41;21.60;99.90
25208;DHT22;13153;52.316;21.166;2023-07-13T00:19:10;21.60;99.90
25208;DHT22;13153;52.316;21.166;2023-07-13T00:21:38;21.60;99.90
25208;DHT22;13153;52.316;21.166;2023-07-13T00:24:06;21.60;99.90
25208;DHT22;13153;52.316;21.166;2023-07-13T00:26:33;21.50;99.90
25208;DHT22;13153;52.316;21.166;2023-07-13T00:28:59;21.50;99.90
25208;DHT22;13153;52.316;21.166;2023-07-13T00:31:25;21.50;99.90
25208;DHT22;13153;52.316;21.166;2023-07-13T00:33:51;21.50;99.90
25208;DHT22;13153;52.316;21.166;2023-07-13T00:36:17;21.50;99.90
25208;DHT22;13153;52.316;21.166;2023-07-13T00:38:46;21.40;99.90
25208;DHT22;13153;52.316;21.166;2023-07-13T00:41:12;21.40;99.90
25208;DHT22;13153;52.316;21.166;2023-07-13T00:43:39;21.40;99.90
25208;DHT22;13153;52.316;21.166;2023-07-13T00:46:13;21.40;99.90
25208;DHT22;13153;52.316;21.166;2023-07-13T00:48:40;21.30;99.90
25208;DHT22;13153;52.316;21.166;2023-07-13T00:51:08;21.30;99.90
25208;DHT22;13153;52.316;21.166;2023-07-13T00:53:36;21.30;99.90
25208;DHT22;13153;52.316;21.166;2023-07-13T00:56:02;21.30;99.90
25208;DHT22;13153;52.316;21.166;2023-07-13T00:58:29;21.20;99.90
25208;DHT22;13153;52.316;21.166;2023-07-13T01:00:55;21.20;99.90
25208;DHT22;13153;52.316;21.166;2023-07-13T01:03:21;21.20;99.90
25208;DHT22;13153;52.316;21.166;2023-07-13T01:05:50;21.20;99.90
25208;DHT22;13153;52.316;21.166;2023-07-13T01:08:20;21.20;99.90
25208;DHT22;13153;52.316;21.166;2023-07-13T01:10:54;21.20;99.90
25208;DHT22;13153;52.316;21.166;2023-07-13T01:13:22;21.10;99.90
25208;DHT22;13153;52.316;21.166;2023-07-13T01:15:50;21.10;99.90
25208;DHT22;13153;52.316;21.166;2023-07-13T01:18:21;21.10;99.90
25208;DHT22;13153;52.316;21.166;2023-07-13T01:23:28;21.00;99.90
25208;DHT22;13153;52.316;21.166;2023-07-13T01:25:56;21.00;99.90
25208;DHT22;13153;52.316;21.166;2023-07-13T01:28:23;21.10;99.90
25208;DHT22;13153;52.316;21.166;2023-07-13T01:30:53;21.00;99.90
25208;DHT22;13153;52.316;21.166;2023-07-13T01:33:20;21.00;99.90
25208;DHT22;13153;52.316;21.166;2023-07-13T01:35:46;21.00;99.90
25208;DHT22;13153;52.316;21.166;2023-07-13T01:38:15;21.00;99.90
25208;DHT22;13153;52.316;21.166;2023-07-13T01:40:43;21.00;99.90
25208;DHT22;13153;52.316;21.166;2023-07-13T01:43:09;21.00;99.90
25208;DHT22;13153;52.316;21.166;2023-07-13T01:45:35;20.90;99.90
25208;DHT22;13153;52.316;21.166;2023-07-13T01:48:01;20.90;99.90
25208;DHT22;13153;52.316;21.166;2023-07-13T01:50:27;21.00;99.90
25208;DHT22;13153;52.316;21.166;2023-07-13T01:52:53;20.90;99.90
25208;DHT22;13153;52.316;21.166;2023-07-13T01:55:20;20.90;99.90
25208;DHT22;13153;52.316;21.166;2023-07-13T01:57:47;20.90;99.90
25208;DHT22;13153;52.316;21.166;2023-07-13T02:00:14;20.90;99.90
25208;DHT22;13153;52.316;21.166;2023-07-13T02:02:41;20.90;99.90
25208;DHT22;13153;52.316;21.166;2023-07-13T02:05:07;20.90;99.90
25208;DHT22;13153;52.316;21.166;2023-07-13T02:07:33;20.90;99.90
25208;DHT22;13153;52.316;21.166;2023-07-13T02:09:59;20.80;99.90
25208;DHT22;13153;52.316;21.166;2023-07-13T02:12:24;20.80;99.90
25208;DHT22;13153;52.316;21.166;2023-07-13T02:14:50;20.80;99.90
25208;DHT22;13153;52.316;21.166;2023-07-13T02:17:16;20.80;99.90
25208;DHT22;13153;52.316;21.166;2023-07-13T02:19:42;20.80;99.90
25208;DHT22;13153;52.316;21.166;2023-07-13T02:22:07;20.80;99.90
25208;DHT22;13153;52.316;21.166;2023-07-13T02:24:33;20.80;99.90
25208;DHT22;13153;52.316;21.166;2023-07-13T02:26:59;20.80;99.90
25208;DHT22;13153;52.316;21.166;2023-07-13T02:29:25;20.80;99.90
25208;DHT22;13153;52.316;21.166;2023-07-13T02:31:50;20.70;99.90
25208;DHT22;13153;52.316;21.166;2023-07-13T02:34:16;20.70;99.90
25208;DHT22;13153;52.316;21.166;2023-07-13T02:36:42;20.70;99.90
25208;DHT22;13153;52.316;21.166;2023-07-13T02:39:08;20.70;99.90
25208;DHT22;13153;52.316;21.166;2023-07-13T02:41:36;20.70;99.90
25208;DHT22;13153;52.316;21.166;2023-07-13T02:44:02;20.70;99.90
25208;DHT22;13153;52.316;21.166;2023-07-13T02:46:33;20.70;99.90
25208;DHT22;13153;52.316;21.166;2023-07-13T02:49:00;20.70;99.90
25208;DHT22;13153;52.316;21.166;2023-07-13T02:51:26;20.70;99.90
25208;DHT22;13153;52.316;21.166;2023-07-13T02:53:52;20.80;99.90
25208;DHT22;13153;52.316;21.166;2023-07-13T02:56:26;20.80;99.90
25208;DHT22;13153;52.316;21.166;2023-07-13T02:58:53;20.90;99.90
25208;DHT22;13153;52.316;21.166;2023-07-13T03:01:20;21.00;99.90
25208;DHT22;13153;52.316;21.166;2023-07-13T03:03:47;21.00;99.90
25208;DHT22;13153;52.316;21.166;2023-07-13T03:06:15;21.00;99.90
25208;DHT22;13153;52.316;21.166;2023-07-13T03:08:42;21.00;99.90
25208;DHT22;13153;52.316;21.166;2023-07-13T03:11:11;21.00;99.90
25208;DHT22;13153;52.316;21.166;2023-07-13T03:13:41;21.00;99.90
25208;DHT22;13153;52.316;21.166;2023-07-13T03:16:08;21.00;99.90
25208;DHT22;13153;52.316;21.166;2023-07-13T03:18:35;21.00;99.90
25208;DHT22;13153;52.316;21.166;2023-07-13T03:21:02;21.00;99.90
25208;DHT22;13153;52.316;21.166;2023-07-13T03:23:29;21.00;99.90
25208;DHT22;13153;52.316;21.166;2023-07-13T03:26:11;21.00;99.90
25208;DHT22;13153;52.316;21.166;2023-07-13T03:28:39;21.00;99.90
25208;DHT22;13153;52.316;21.166;2023-07-13T03:31:09;21.00;99.90
25208;DHT22;13153;52.316;21.166;2023-07-13T03:33:37;21.10;99.90
25208;DHT22;13153;52.316;21.166;2023-07-13T03:36:04;21.10;99.90
25208;DHT22;13153;52.316;21.166;2023-07-13T03:38:31;21.10;99.90
25208;DHT22;13153;52.316;21.166;2023-07-13T03:40:58;21.20;99.90
25208;DHT22;13153;52.316;21.166;2023-07-13T03:43:24;21.40;99.90
25208;DHT22;13153;52.316;21.166;2023-07-13T03:45:50;21.70;99.90
25208;DHT22;13153;52.316;21.166;2023-07-13T03:48:16;21.90;99.90
25208;DHT22;13153;52.316;21.166;2023-07-13T03:50:42;22.20;99.90
25208;DHT22;13153;52.316;21.166;2023-07-13T03:53:08;22.70;99.90
25208;DHT22;13153;52.316;21.166;2023-07-13T03:55:34;23.10;99.90
25208;DHT22;13153;52.316;21.166;2023-07-13T03:58:27;23.50;99.90
25208;DHT22;13153;52.316;21.166;2023-07-13T04:00:58;23.80;99.90
25208;DHT22;13153;52.316;21.166;2023-07-13T04:03:24;24.30;99.90
25208;DHT22;13153;52.316;21.166;2023-07-13T04:05:50;24.70;99.90
25208;DHT22;13153;52.316;21.166;2023-07-13T04:08:16;25.20;99.90
25208;DHT22;13153;52.316;21.166;2023-07-13T04:10:43;25.60;99.90
25208;DHT22;13153;52.316;21.166;2023-07-13T04:13:09;26.10;99.90
25208;DHT22;13153;52.316;21.166;2023-07-13T04:15:34;26.50;99.90
25208;DHT22;13153;52.316;21.166;2023-07-13T04:18:00;26.90;99.90
25208;DHT22;13153;52.316;21.166;2023-07-13T04:20:26;27.40;99.90
25208;DHT22;13153;52.316;21.166;2023-07-13T04:22:52;28.00;99.90
25208;DHT22;13153;52.316;21.166;2023-07-13T04:25:20;28.60;99.90
25208;DHT22;13153;52.316;21.166;2023-07-13T04:27:46;29.30;99.90
25208;DHT22;13153;52.316;21.166;2023-07-13T04:30:12;29.80;99.90
25208;DHT22;13153;52.316;21.166;2023-07-13T04:32:38;30.40;99.90
25208;DHT22;13153;52.316;21.166;2023-07-13T04:35:04;30.90;99.90
25208;DHT22;13153;52.316;21.166;2023-07-13T04:37:30;31.50;99.90
25208;DHT22;13153;52.316;21.166;2023-07-13T04:39:56;32.10;99.90
25208;DHT22;13153;52.316;21.166;2023-07-13T04:42:22;32.70;99.90
25208;DHT22;13153;52.316;21.166;2023-07-13T04:44:51;33.00;99.90
25208;DHT22;13153;52.316;21.166;2023-07-13T04:47:18;32.30;99.90
25208;DHT22;13153;52.316;21.166;2023-07-13T04:49:44;31.20;99.90
25208;DHT22;13153;52.316;21.166;2023-07-13T04:52:11;30.40;99.90
25208;DHT22;13153;52.316;21.166;2023-07-13T04:54:37;29.70;99.90
25208;DHT22;13153;52.316;21.166;2023-07-13T04:57:04;29.00;99.90
25208;DHT22;13153;52.316;21.166;2023-07-13T04:59:34;28.40;99.90
25208;DHT22;13153;52.316;21.166;2023-07-13T05:02:00;28.00;99.90
25208;DHT22;13153;52.316;21.166;2023-07-13T05:04:27;27.40;99.90
25208;DHT22;13153;52.316;21.166;2023-07-13T05:06:52;27.00;99.90
25208;DHT22;13153;52.316;21.166;2023-07-13T05:09:18;26.60;99.90
25208;DHT22;13153;52.316;21.166;2023-07-13T05:11:44;26.20;99.90
25208;DHT22;13153;52.316;21.166;2023-07-13T05:14:10;25.80;99.90
25208;DHT22;13153;52.316;21.166;2023-07-13T05:16:36;25.60;99.90
25208;DHT22;13153;52.316;21.166;2023-07-13T05:19:02;25.30;99.90
25208;DHT22;13153;52.316;21.166;2023-07-13T05:21:28;25.00;99.90
25208;DHT22;13153;52.316;21.166;2023-07-13T05:23:54;24.80;99.90
25208;DHT22;13153;52.316;21.166;2023-07-13T05:26:20;24.70;99.90
25208;DHT22;13153;52.316;21.166;2023-07-13T05:28:46;24.60;99.90
25208;DHT22;13153;52.316;21.166;2023-07-13T05:31:12;24.60;99.90
25208;DHT22;13153;52.316;21.166;2023-07-13T05:33:38;24.60;99.90
25208;DHT22;13153;52.316;21.166;2023-07-13T05:36:05;24.70;99.90
25208;DHT22;13153;52.316;21.166;2023-07-13T05:38:32;24.70;99.90
25208;DHT22;13153;52.316;21.166;2023-07-13T05:40:58;24.70;99.90
25208;DHT22;13153;52.316;21.166;2023-07-13T05:43:24;24.70;99.90
25208;DHT22;13153;52.316;21.166;2023-07-13T05:45:53;24.70;99.90
25208;DHT22;13153;52.316;21.166;2023-07-13T05:48:19;24.70;99.90
25208;DHT22;13153;52.316;21.166;2023-07-13T05:50:45;24.80;99.90
25208;DHT22;13153;52.316;21.166;2023-07-13T05:53:12;24.80;99.90
25208;DHT22;13153;52.316;21.166;2023-07-13T05:55:46;24.90;99.90
25208;DHT22;13153;52.316;21.166;2023-07-13T05:58:17;24.90;99.90
25208;DHT22;13153;52.316;21.166;2023-07-13T06:00:43;25.00;99.90
25208;DHT22;13153;52.316;21.166;2023-07-13T06:03:09;25.20;99.90
25208;DHT22;13153;52.316;21.166;2023-07-13T06:05:36;25.30;99.90
25208;DHT22;13153;52.316;21.166;2023-07-13T06:08:04;25.60;99.90
25208;DHT22;13153;52.316;21.166;2023-07-13T06:10:33;25.70;99.90
25208;DHT22;13153;52.316;21.166;2023-07-13T06:12:59;25.80;99.90
25208;DHT22;13153;52.316;21.166;2023-07-13T06:15:25;25.80;99.90
25208;DHT22;13153;52.316;21.166;2023-07-13T06:17:50;25.80;99.90
25208;DHT22;13153;52.316;21.166;2023-07-13T06:20:16;25.70;99.90
25208;DHT22;13153;52.316;21.166;2023-07-13T06:22:42;25.70;99.90
25208;DHT22;13153;52.316;21.166;2023-07-13T06:25:08;25.70;99.90
25208;DHT22;13153;52.316;21.166;2023-07-13T06:27:34;25.60;99.90
25208;DHT22;13153;52.316;21.166;2023-07-13T06:30:00;25.60;99.90
25208;DHT22;13153;52.316;21.166;2023-07-13T06:32:26;25.60;99.90
25208;DHT22;13153;52.316;21.166;2023-07-13T06:34:52;25.70;99.90
25208;DHT22;13153;52.316;21.166;2023-07-13T06:37:18;26.10;99.90
25208;DHT22;13153;52.316;21.166;2023-07-13T06:39:44;26.30;99.90
25208;DHT22;13153;52.316;21.166;2023-07-13T06:42:10;26.80;99.90
25208;DHT22;13153;52.316;21.166;2023-07-13T06:44:36;27.50;99.90
25208;DHT22;13153;52.316;21.166;2023-07-13T06:47:02;29.10;99.90
25208;DHT22;13153;52.316;21.166;2023-07-13T06:49:28;29.90;99.90
25208;DHT22;13153;52.316;21.166;2023-07-13T06:51:54;30.90;99.90
25208;DHT22;13153;52.316;21.166;2023-07-13T06:54:20;32.60;99.90
25208;DHT22;13153;52.316;21.166;2023-07-13T06:56:45;34.40;99.90
25208;DHT22;13153;52.316;21.166;2023-07-13T06:59:11;35.80;91.00
25208;DHT22;13153;52.316;21.166;2023-07-13T07:01:37;37.00;85.70
25208;DHT22;13153;52.316;21.166;2023-07-13T07:04:03;37.90;74.30
25208;DHT22;13153;52.316;21.166;2023-07-13T07:06:29;38.40;71.60
25208;DHT22;13153;52.316;21.166;2023-07-13T07:08:56;39.00;70.20
25208;DHT22;13153;52.316;21.166;2023-07-13T07:11:24;39.40;65.70
25208;DHT22;13153;52.316;21.166;2023-07-13T07:13:51;39.70;62.50
25208;DHT22;13153;52.316;21.166;2023-07-13T07:16:19;39.80;60.00
25208;DHT22;13153;52.316;21.166;2023-07-13T07:18:46;39.80;59.20
25208;DHT22;13153;52.316;21.166;2023-07-13T07:21:13;39.80;59.80
25208;DHT22;13153;52.316;21.166;2023-07-13T07:23:39;39.70;57.30
25208;DHT22;13153;52.316;21.166;2023-07-13T07:26:05;39.70;58.50
25208;DHT22;13153;52.316;21.166;2023-07-13T07:28:34;39.60;56.80
25208;DHT22;13153;52.316;21.166;2023-07-13T07:30:59;39.00;55.60
25208;DHT22;13153;52.316;21.166;2023-07-13T07:33:25;38.20;54.40
25208;DHT22;13153;52.316;21.166;2023-07-13T07:35:52;37.70;55.40
25208;DHT22;13153;52.316;21.166;2023-07-13T07:38:18;37.40;56.80
25208;DHT22;13153;52.316;21.166;2023-07-13T07:40:44;36.90;56.40
25208;DHT22;13153;52.316;21.166;2023-07-13T07:43:11;36.40;57.70
25208;DHT22;13153;52.316;21.166;2023-07-13T07:45:39;35.90;58.30
25208;DHT22;13153;52.316;21.166;2023-07-13T07:48:06;35.50;58.00
25208;DHT22;13153;52.316;21.166;2023-07-13T07:50:34;35.30;59.70
25208;DHT22;13153;52.316;21.166;2023-07-13T07:53:01;34.80;60.40
25208;DHT22;13153;52.316;21.166;2023-07-13T07:55:27;34.40;61.60
25208;DHT22;13153;52.316;21.166;2023-07-13T07:57:53;33.80;63.70
25208;DHT22;13153;52.316;21.166;2023-07-13T08:00:20;33.40;64.00
25208;DHT22;13153;52.316;21.166;2023-07-13T08:02:46;33.20;64.10
25208;DHT22;13153;52.316;21.166;2023-07-13T08:05:13;33.30;65.90
25208;DHT22;13153;52.316;21.166;2023-07-13T08:07:40;33.30;63.00
25208;DHT22;13153;52.316;21.166;2023-07-13T08:10:06;32.90;63.20
25208;DHT22;13153;52.316;21.166;2023-07-13T08:12:37;32.40;64.50
25208;DHT22;13153;52.316;21.166;2023-07-13T08:15:04;31.80;66.80
25208;DHT22;13153;52.316;21.166;2023-07-13T08:17:31;31.30;67.00
25208;DHT22;13153;52.316;21.166;2023-07-13T08:19:57;31.00;66.70
25208;DHT22;13153;52.316;21.166;2023-07-13T08:22:23;31.00;69.50
25208;DHT22;13153;52.316;21.166;2023-07-13T08:24:49;31.00;69.60
25208;DHT22;13153;52.316;21.166;2023-07-13T08:27:22;31.00;70.30
25208;DHT22;13153;52.316;21.166;2023-07-13T08:29:49;31.00;69.50
25208;DHT22;13153;52.316;21.166;2023-07-13T08:32:17;31.10;70.60
25208;DHT22;13153;52.316;21.166;2023-07-13T08:34:43;31.10;69.50
25208;DHT22;13153;52.316;21.166;2023-07-13T08:37:09;30.80;70.10
25208;DHT22;13153;52.316;21.166;2023-07-13T08:39:35;30.70;70.50
25208;DHT22;13153;52.316;21.166;2023-07-13T08:42:05;30.50;71.20
25208;DHT22;13153;52.316;21.166;2023-07-13T08:45:01;30.20;72.70
25208;DHT22;13153;52.316;21.166;2023-07-13T08:47:35;30.00;71.20
25208;DHT22;13153;52.316;21.166;2023-07-13T08:50:05;29.90;71.80
25208;DHT22;13153;52.316;21.166;2023-07-13T08:52:40;29.90;72.10
25208;DHT22;13153;52.316;21.166;2023-07-13T08:55:34;30.00;74.20
25208;DHT22;13153;52.316;21.166;2023-07-13T08:58:12;30.20;74.00
25208;DHT22;13153;52.316;21.166;2023-07-13T09:00:56;30.10;73.50
25208;DHT22;13153;52.316;21.166;2023-07-13T09:03:29;30.10;73.80
25208;DHT22;13153;52.316;21.166;2023-07-13T09:06:02;30.00;73.50
25208;DHT22;13153;52.316;21.166;2023-07-13T09:08:59;30.00;73.80
25208;DHT22;13153;52.316;21.166;2023-07-13T09:14:06;30.00;75.40
25208;DHT22;13153;52.316;21.166;2023-07-13T09:17:08;29.90;75.00
25208;DHT22;13153;52.316;21.166;2023-07-13T09:19:40;29.70;74.40
25208;DHT22;13153;52.316;21.166;2023-07-13T09:22:11;29.60;75.90
25208;DHT22;13153;52.316;21.166;2023-07-13T09:24:47;29.50;75.70
25208;DHT22;13153;52.316;21.166;2023-07-13T09:27:29;29.30;74.70
25208;DHT22;13153;52.316;21.166;2023-07-13T09:30:32;29.00;72.60
25208;DHT22;13153;52.316;21.166;2023-07-13T09:33:03;28.60;74.00
25208;DHT22;13153;52.316;21.166;2023-07-13T09:35:30;28.30;73.90
25208;DHT22;13153;52.316;21.166;2023-07-13T09:38:11;28.10;75.20
25208;DHT22;13153;52.316;21.166;2023-07-13T09:43:38;27.20;76.20
25208;DHT22;13153;52.316;21.166;2023-07-13T09:46:07;26.70;77.90
25208;DHT22;13153;52.316;21.166;2023-07-13T09:48:47;26.30;79.70
25208;DHT22;13153;52.316;21.166;2023-07-13T09:51:15;26.00;81.40
25208;DHT22;13153;52.316;21.166;2023-07-13T09:53:42;25.90;82.50
25208;DHT22;13153;52.316;21.166;2023-07-13T09:56:29;25.80;83.50
25208;DHT22;13153;52.316;21.166;2023-07-13T09:58:56;25.90;85.60
25208;DHT22;13153;52.316;21.166;2023-07-13T10:01:34;26.10;86.50
25208;DHT22;13153;52.316;21.166;2023-07-13T10:04:11;26.30;87.00
25208;DHT22;13153;52.316;21.166;2023-07-13T10:06:39;26.50;87.80
25208;DHT22;13153;52.316;21.166;2023-07-13T10:09:09;26.50;89.60
25208;DHT22;13153;52.316;21.166;2023-07-13T10:11:36;26.40;89.10
25208;DHT22;13153;52.316;21.166;2023-07-13T10:14:15;26.10;88.00
25208;DHT22;13153;52.316;21.166;2023-07-13T10:17:00;25.80;89.50
25208;DHT22;13153;52.316;21.166;2023-07-13T10:19:31;25.60;90.30
25208;DHT22;13153;52.316;21.166;2023-07-13T10:22:12;25.40;90.80
25208;DHT22;13153;52.316;21.166;2023-07-13T10:24:53;25.30;91.00
25208;DHT22;13153;52.316;21.166;2023-07-13T10:27:33;25.20;91.50
25208;DHT22;13153;52.316;21.166;2023-07-13T10:30:19;25.10;91.70
25208;DHT22;13153;52.316;21.166;2023-07-13T10:32:57;25.00;92.00
25208;DHT22;13153;52.316;21.166;2023-07-13T10:35:26;24.90;92.80
25208;DHT22;13153;52.316;21.166;2023-07-13T10:38:07;24.80;92.70
25208;DHT22;13153;52.316;21.166;2023-07-13T10:41:01;24.80;93.10
25208;DHT22;13153;52.316;21.166;2023-07-13T10:43:41;24.70;94.00
25208;DHT22;13153;52.316;21.166;2023-07-13T10:46:16;24.70;94.40
25208;DHT22;13153;52.316;21.166;2023-07-13T10:48:52;24.80;95.40
25208;DHT22;13153;52.316;21.166;2023-07-13T10:51:23;24.90;96.00
25208;DHT22;13153;52.316;21.166;2023-07-13T10:56:42;25.20;96.00
25208;DHT22;13153;52.316;21.166;2023-07-13T10:59:10;25.20;95.90
25208;DHT22;13153;52.316;21.166;2023-07-13T11:04:53;25.20;96.30
25208;DHT22;13153;52.316;21.166;2023-07-13T11:07:22;25.20;97.30
25208;DHT22;13153;52.316;21.166;2023-07-13T11:09:53;25.20;98.20
25208;DHT22;13153;52.316;21.166;2023-07-13T11:19:54;24.90;99.90
25208;DHT22;13153;52.316;21.166;2023-07-13T11:25:36;24.70;99.90
25208;DHT22;13153;52.316;21.166;2023-07-13T11:28:16;24.60;99.90
25208;DHT22;13153;52.316;21.166;2023-07-13T11:36:21;24.40;99.90
25208;DHT22;13153;52.316;21.166;2023-07-13T11:41:58;24.00;99.90
25208;DHT22;13153;52.316;21.166;2023-07-13T11:44:28;23.90;99.90
25208;DHT22;13153;52.316;21.166;2023-07-13T11:46:57;23.70;99.90
25208;DHT22;13153;52.316;21.166;2023-07-13T11:49:31;23.60;99.90
25208;DHT22;13153;52.316;21.166;2023-07-13T11:51:58;23.60;99.90
25208;DHT22;13153;52.316;21.166;2023-07-13T11:54:30;23.50;99.90
25208;DHT22;13153;52.316;21.166;2023-07-13T11:57:06;23.50;99.90
25208;DHT22;13153;52.316;21.166;2023-07-13T11:59:53;23.40;99.90
25208;DHT22;13153;52.316;21.166;2023-07-13T12:02:37;23.40;99.90
25208;DHT22;13153;52.316;21.166;2023-07-13T12:05:11;23.40;99.90
25208;DHT22;13153;52.316;21.166;2023-07-13T12:07:40;23.50;99.90
25208;DHT22;13153;52.316;21.166;2023-07-13T12:15:48;23.80;99.90
25208;DHT22;13153;52.316;21.166;2023-07-13T12:20:40;24.00;99.90
25208;DHT22;13153;52.316;21.166;2023-07-13T12:23:22;24.10;99.90
25208;DHT22;13153;52.316;21.166;2023-07-13T12:25:58;24.10;99.90
25208;DHT22;13153;52.316;21.166;2023-07-13T12:28:38;24.10;99.90
25208;DHT22;13153;52.316;21.166;2023-07-13T12:31:30;24.00;99.90
25208;DHT22;13153;52.316;21.166;2023-07-13T12:34:12;24.00;99.90
25208;DHT22;13153;52.316;21.166;2023-07-13T12:37:08;23.90;99.90
25208;DHT22;13153;52.316;21.166;2023-07-13T12:39:45;23.80;99.90
25208;DHT22;13153;52.316;21.166;2023-07-13T12:42:27;23.70;99.90
25208;DHT22;13153;52.316;21.166;2023-07-13T12:45:02;23.60;99.90
25208;DHT22;13153;52.316;21.166;2023-07-13T12:47:43;23.40;99.90
25208;DHT22;13153;52.316;21.166;2023-07-13T12:50:23;23.30;99.90
25208;DHT22;13153;52.316;21.166;2023-07-13T12:53:01;23.20;99.90
25208;DHT22;13153;52.316;21.166;2023-07-13T12:55:29;23.20;99.90
25208;DHT22;13153;52.316;21.166;2023-07-13T12:57:59;23.20;99.90
25208;DHT22;13153;52.316;21.166;2023-07-13T13:00:37;23.20;99.90
25208;DHT22;13153;52.316;21.166;2023-07-13T13:03:32;23.20;99.90
25208;DHT22;13153;52.316;21.166;2023-07-13T13:06:01;23.30;99.90
25208;DHT22;13153;52.316;21.166;2023-07-13T13:08:34;23.40;99.90
25208;DHT22;13153;52.316;21.166;2023-07-13T13:11:01;23.50;99.90
25208;DHT22;13153;52.316;21.166;2023-07-13T13:13:28;23.50;99.90
25208;DHT22;13153;52.316;21.166;2023-07-13T13:15:54;23.50;99.90
25208;DHT22;13153;52.316;21.166;2023-07-13T13:18:22;23.50;99.90
25208;DHT22;13153;52.316;21.166;2023-07-13T13:20:51;23.40;99.90
25208;DHT22;13153;52.316;21.166;2023-07-13T13:23:19;23.40;99.90
25208;DHT22;13153;52.316;21.166;2023-07-13T13:25:47;23.20;99.90
25208;DHT22;13153;52.316;21.166;2023-07-13T13:28:18;23.10;99.90
25208;DHT22;13153;52.316;21.166;2023-07-13T13:30:48;23.00;99.90
25208;DHT22;13153;52.316;21.166;2023-07-13T13:33:18;22.90;99.90
25208;DHT22;13153;52.316;21.166;2023-07-13T13:35:45;22.80;99.90
25208;DHT22;13153;52.316;21.166;2023-07-13T13:38:16;22.70;99.90
25208;DHT22;13153;52.316;21.166;2023-07-13T13:40:45;22.70;99.90
25208;DHT22;13153;52.316;21.166;2023-07-13T13:43:25;22.60;99.90
25208;DHT22;13153;52.316;21.166;2023-07-13T13:45:54;22.60;99.90
25208;DHT22;13153;52.316;21.166;2023-07-13T13:48:34;22.60;99.90
25208;DHT22;13153;52.316;21.166;2023-07-13T13:51:11;22.60;99.90
25208;DHT22;13153;52.316;21.166;2023-07-13T13:53:39;22.50;99.90
25208;DHT22;13153;52.316;21.166;2023-07-13T13:56:05;22.40;99.90
25208;DHT22;13153;52.316;21.166;2023-07-13T13:58:31;22.30;99.90
25208;DHT22;13153;52.316;21.166;2023-07-13T14:00:57;22.30;99.90
25208;DHT22;13153;52.316;21.166;2023-07-13T14:03:24;22.30;99.90
25208;DHT22;13153;52.316;21.166;2023-07-13T14:05:50;22.30;99.90
25208;DHT22;13153;52.316;21.166;2023-07-13T14:08:18;22.40;99.90
25208;DHT22;13153;52.316;21.166;2023-07-13T14:10:46;22.40;99.90
25208;DHT22;13153;52.316;21.166;2023-07-13T14:13:24;22.40;99.90
25208;DHT22;13153;52.316;21.166;2023-07-13T14:15:54;22.40;99.90
25208;DHT22;13153;52.316;21.166;2023-07-13T14:18:20;22.40;99.90
25208;DHT22;13153;52.316;21.166;2023-07-13T14:20:48;22.40;99.90
25208;DHT22;13153;52.316;21.166;2023-07-13T14:23:16;22.40;99.90
25208;DHT22;13153;52.316;21.166;2023-07-13T14:25:44;22.30;99.90
25208;DHT22;13153;52.316;21.166;2023-07-13T14:28:26;22.20;99.90
25208;DHT22;13153;52.316;21.166;2023-07-13T14:30:54;22.20;99.90
25208;DHT22;13153;52.316;21.166;2023-07-13T14:33:20;22.30;99.90
25208;DHT22;13153;52.316;21.166;2023-07-13T14:35:46;22.40;99.90
25208;DHT22;13153;52.316;21.166;2023-07-13T14:38:18;22.50;99.90
25208;DHT22;13153;52.316;21.166;2023-07-13T14:40:46;22.60;99.90
25208;DHT22;13153;52.316;21.166;2023-07-13T14:43:13;22.70;99.90
25208;DHT22;13153;52.316;21.166;2023-07-13T14:45:43;22.80;99.90
25208;DHT22;13153;52.316;21.166;2023-07-13T14:48:20;22.90;99.90
25208;DHT22;13153;52.316;21.166;2023-07-13T14:50:55;22.90;99.90
25208;DHT22;13153;52.316;21.166;2023-07-13T14:53:22;22.90;99.90
25208;DHT22;13153;52.316;21.166;2023-07-13T14:55:50;22.90;99.90
25208;DHT22;13153;52.316;21.166;2023-07-13T14:58:16;22.90;99.90
25208;DHT22;13153;52.316;21.166;2023-07-13T15:00:42;22.80;99.90
25208;DHT22;13153;52.316;21.166;2023-07-13T15:03:17;22.80;99.90
25208;DHT22;13153;52.316;21.166;2023-07-13T15:05:47;22.80;99.90
25208;DHT22;13153;52.316;21.166;2023-07-13T15:08:15;22.70;99.90
25208;DHT22;13153;52.316;21.166;2023-07-13T15:10:41;22.70;99.90
25208;DHT22;13153;52.316;21.166;2023-07-13T15:13:20;22.60;99.90
25208;DHT22;13153;52.316;21.166;2023-07-13T15:15:50;22.50;99.90
25208;DHT22;13153;52.316;21.166;2023-07-13T15:18:20;22.50;99.90
25208;DHT22;13153;52.316;21.166;2023-07-13T15:20:48;22.50;99.90
25208;DHT22;13153;52.316;21.166;2023-07-13T15:23:17;22.60;99.90
25208;DHT22;13153;52.316;21.166;2023-07-13T15:25:44;22.60;99.90
25208;DHT22;13153;52.316;21.166;2023-07-13T15:28:11;22.60;99.90
25208;DHT22;13153;52.316;21.166;2023-07-13T15:30:46;22.60;99.90
25208;DHT22;13153;52.316;21.166;2023-07-13T15:33:19;22.60;99.90
25208;DHT22;13153;52.316;21.166;2023-07-13T15:35:48;22.60;99.90
25208;DHT22;13153;52.316;21.166;2023-07-13T15:38:19;22.70;99.90
25208;DHT22;13153;52.316;21.166;2023-07-13T15:40:49;22.70;99.90
25208;DHT22;13153;52.316;21.166;2023-07-13T15:43:16;22.70;99.90
25208;DHT22;13153;52.316;21.166;2023-07-13T15:45:44;22.60;99.90
25208;DHT22;13153;52.316;21.166;2023-07-13T15:48:20;22.60;99.90
25208;DHT22;13153;52.316;21.166;2023-07-13T15:50:49;22.60;99.90
25208;DHT22;13153;52.316;21.166;2023-07-13T15:53:23;22.60;99.90
25208;DHT22;13153;52.316;21.166;2023-07-13T15:55:52;22.60;99.90
25208;DHT22;13153;52.316;21.166;2023-07-13T15:58:18;22.60;99.90
25208;DHT22;13153;52.316;21.166;2023-07-13T16:00:45;22.60;99.90
25208;DHT22;13153;52.316;21.166;2023-07-13T16:03:12;22.60;99.90
25208;DHT22;13153;52.316;21.166;2023-07-13T16:05:38;22.60;99.90
25208;DHT22;13153;52.316;21.166;2023-07-13T16:08:06;22.60;99.90
25208;DHT22;13153;52.316;21.166;2023-07-13T16:10:45;22.60;99.90
25208;DHT22;13153;52.316;21.166;2023-07-13T16:13:14;22.60;99.90